Time;durP1;ratioP1;P1;durP2;ratioP2;P2;SDS_P1;SDS_P2;PMS_P1;PMS_P2;Temp;Humidity;BMP_temperature;BMP_pressure;BME280_temperature;BME280_humidity;BME280_pressure;Samples;Min_cycle;Max_cycle;Signal;HPM_P1;HPM_P2
2022/06/10 10:19:20;;;;;;;126.65;15.30;;;;;;;22.64;40.43;97288.53;2086551;28;20557;-62
2022/06/10 10:20:56;;;;;;;138.40;15.70;;;;;;;22.75;40.43;97296.44;2078676;28;20201;-62
2022/06/10 10:22:16;;;;;;;132.90;14.32;;;;;;;23.49;39.06;97297.31;2071720;28;20227;-62
2022/06/10 11:00:03;;;;;;;137.48;12.48;;;;;;;22.91;38.57;97290.66;2085542;28;20546;-58
2022/06/10 11:17:35;;;;;;;132.10;16.38;;;;;;;23.66;38.36;97276.34;2091519;27;20606;-59
2022/06/10 11:18:46;;;;;;;131.80;11.80;;;;;;;23.12;36.89;97280.00;2086822;28;20964;-59
2022/06/10 11:23:17;;;;;;;129.73;18.08;;;;;;;23.95;34.25;97279.94;2086991;28;20559;-59
2022/06/10 11:24:46;;;;;;;140.63;22.70;;;;;;;23.07;34.97;97278.69;2078436;28;20227;-59
2022/06/10 11:26:13;;;;;;;132.30;13.95;;;;;;;23.67;35.00;97278.88;2078195;28;20197;-59
2022/06/10 11:27:19;;;;;;;137.18;17.55;;;;;;;24.07;35.62;97275.31;2073555;28;20238;-59
2022/06/10 11:28:23;;;;;;;136.80;28.08;;;;;;;24.04;34.09;97269.44;2086416;28;20718;-59
2022/06/10 11:29:29;;;;;;;133.18;19.98;;;;;;;24.34;33.75;97279.16;2070553;28;20210;-59
2022/06/10 11:30:42;;;;;;;131.05;17.42;;;;;;;24.67;33.90;97281.56;2078943;28;20224;-59
2022/06/10 11:31:51;;;;;;;141.98;32.10;;;;;;;24.82;33.28;97273.97;2076006;28;20226;-59
2022/06/10 11:32:59;;;;;;;151.68;49.67;;;;;;;24.65;33.62;97273.69;2085715;28;20197;-59
2022/06/10 11:34:01;;;;;;;146.55;36.05;;;;;;;24.32;33.87;97272.28;2078547;28;20535;-59
2022/06/10 11:35:38;;;;;;;141.77;37.47;;;;;;;24.74;33.53;97264.00;2070421;28;20195;-59
2022/06/10 11:36:47;;;;;;;133.68;25.58;;;;;;;23.69;36.21;97273.41;2061110;28;20205;-59
2022/06/10 11:38:00;;;;;;;138.15;30.27;;;;;;;24.13;34.96;97271.28;2073776;28;20253;-61
2022/06/10 11:39:31;;;;;;;156.02;49.17;;;;;;;23.66;36.04;97273.69;2070844;28;20194;-61
2022/06/10 11:40:41;;;;;;;130.38;19.73;;;;;;;25.25;34.15;97264.56;2070096;28;20340;-62
2022/06/10 11:42:09;;;;;;;150.15;23.33;;;;;;;24.97;33.56;97266.34;2062301;28;20206;-59
2022/06/10 11:43:38;;;;;;;138.48;31.90;;;;;;;24.32;36.28;97258.94;2084966;28;20343;-59
2022/06/10 11:44:52;;;;;;;142.57;37.28;;;;;;;24.59;34.82;97260.88;2070360;28;20198;-59
2022/06/10 11:46:05;;;;;;;136.07;28.13;;;;;;;23.82;36.64;97266.00;2069278;28;20252;-57
2022/06/10 11:47:32;;;;;;;141.43;24.45;;;;;;;23.77;36.14;97266.41;2068898;28;20227;-58
2022/06/10 11:48:45;;;;;;;152.60;40.22;;;;;;;23.30;36.25;97256.28;2085879;28;20736;-58
2022/06/10 11:49:58;;;;;;;137.88;14.23;;;;;;;22.53;38.69;97262.81;2070301;28;20201;-58
2022/06/10 11:51:27;;;;;;;129.73;17.67;;;;;;;22.22;37.88;97259.16;2070232;28;20248;-58
2022/06/10 11:53:09;;;;;;;143.77;24.50;;;;;;;21.67;39.49;97255.56;2074719;28;20220;-58
2022/06/10 11:54:39;;;;;;;153.73;13.93;;;;;;;21.35;41.02;97250.94;2075830;28;20193;-58
2022/06/10 11:55:44;;;;;;;154.70;22.98;;;;;;;21.50;41.55;97259.53;2069962;28;20201;-58
2022/06/10 12:33:07;;;;;;;136.35;18.60;;;;;;;24.33;35.90;97244.59;2085080;28;20557;-58
2022/06/10 12:34:18;;;;;;;132.40;12.45;;;;;;;24.81;36.02;97238.44;2078634;28;20205;-58
2022/06/10 12:35:34;;;;;;;130.60;10.70;;;;;;;25.64;35.34;97243.06;2081828;28;20200;-58
2022/06/10 12:36:42;;;;;;;127.38;13.98;;;;;;;25.79;34.71;97234.53;2070775;28;20192;-58
2022/06/10 12:37:47;;;;;;;129.25;9.75;;;;;;;25.44;36.03;97234.28;2079631;28;20204;-58
2022/06/10 12:38:50;;;;;;;128.75;12.70;;;;;;;25.85;35.13;97232.09;2073101;28;20206;-58
2022/06/10 12:40:26;;;;;;;138.05;16.52;;;;;;;26.66;33.52;97230.34;2067369;28;20202;-59
2022/06/10 12:41:50;;;;;;;158.30;60.13;;;;;;;24.43;34.79;97224.13;2073249;28;20207;-58
2022/06/10 12:42:55;;;;;;;143.25;29.63;;;;;;;24.53;36.77;97224.09;2073215;28;20213;-58
2022/06/10 12:44:01;;;;;;;143.00;22.00;;;;;;;24.88;36.79;97228.00;2072460;28;20201;-58
2022/06/10 12:45:09;;;;;;;129.90;20.55;;;;;;;25.20;35.69;97229.44;2072653;28;20205;-58
2022/06/10 12:46:39;;;;;;;131.00;18.73;;;;;;;26.15;34.97;97227.41;2074051;28;20649;-58
2022/06/10 12:47:42;;;;;;;136.93;27.70;;;;;;;26.42;33.67;97217.59;2073352;28;20226;-58
2022/06/10 12:48:47;;;;;;;132.75;22.20;;;;;;;26.55;33.89;97231.44;2074378;28;20192;-58
2022/06/10 12:49:56;;;;;;;132.27;20.63;;;;;;;26.25;34.37;97216.63;2070980;28;20205;-58
2022/06/10 12:51:01;;;;;;;124.82;11.40;;;;;;;25.83;34.91;97225.22;2073256;28;20738;-58
2022/06/10 12:52:17;;;;;;;130.23;12.82;;;;;;;24.23;37.29;97221.44;2060572;28;20214;-58
2022/06/10 12:53:30;;;;;;;135.23;26.77;;;;;;;24.68;36.54;97216.50;2075615;28;20192;-58
2022/06/10 12:54:47;;;;;;;131.77;13.10;;;;;;;24.75;36.68;97228.31;2075745;28;20824;-58
2022/06/10 12:55:52;;;;;;;125.82;7.43;;;;;;;24.65;36.47;97220.31;2068466;28;20710;-58
2022/06/10 12:57:31;;;;;;;121.95;8.70;;;;;;;24.59;37.01;97224.38;2068932;28;20221;-58
2022/06/10 12:58:38;;;;;;;132.35;19.67;;;;;;;24.59;36.70;97219.03;2080721;28;20193;-58
2022/06/10 12:59:39;;;;;;;122.50;11.02;;;;;;;24.48;36.88;97215.66;2072093;28;20623;-58
2022/06/10 13:00:43;;;;;;;131.30;10.43;;;;;;;24.48;36.92;97219.19;2073756;28;20660;-58
2022/06/10 13:13:23;;;;;;;125.60;14.98;;;;;;;24.98;37.14;97210.13;2083578;28;20759;-60
2022/06/10 13:14:25;;;;;;;123.47;12.38;;;;;;;25.69;36.07;97211.38;2077963;28;20197;-60
2022/06/10 13:15:29;;;;;;;122.90;11.07;;;;;;;26.31;34.18;97213.34;2078662;28;20709;-60
2022/06/10 13:16:34;;;;;;;134.15;12.68;;;;;;;26.16;34.12;97210.38;2078620;28;20197;-60
2022/06/10 13:17:35;;;;;;;131.43;15.13;;;;;;;25.98;34.66;97207.66;2068750;28;20216;-60
2022/06/10 13:28:23;;;;;;;123.40;13.45;;;;;;;25.65;34.97;97210.00;2084009;27;20556;-59
2022/06/10 13:39:37;;;;;;;139.75;10.10;;;;;;;25.20;35.40;97200.88;2082841;28;20584;-61
2022/06/10 13:40:45;;;;;;;121.90;13.00;;;;;;;26.02;34.59;97208.19;2078030;28;20268;-60
2022/06/10 13:41:52;;;;;;;127.88;22.23;;;;;;;26.09;34.09;97203.94;2066578;28;20556;-60
2022/06/10 13:43:00;;;;;;;128.40;20.20;;;;;;;26.44;33.89;97210.28;2069793;28;20288;-60
2022/06/10 13:44:02;;;;;;;125.35;19.08;;;;;;;26.61;33.55;97202.38;2064895;28;20672;-61
2022/06/10 13:45:16;;;;;;;130.68;28.88;;;;;;;26.03;33.85;97201.84;2062427;28;20252;-61
2022/06/10 13:46:29;;;;;;;131.30;29.80;;;;;;;25.90;33.97;97199.53;2061196;28;20198;-61
2022/06/10 13:47:34;;;;;;;127.90;24.15;;;;;;;24.78;34.40;97202.16;2061570;28;20745;-61
2022/06/10 13:48:36;;;;;;;134.43;30.88;;;;;;;24.38;34.33;97199.66;2062331;28;20214;-60
2022/06/10 13:49:50;;;;;;;130.10;26.52;;;;;;;24.25;35.74;97205.28;2062265;28;20198;-60
2022/06/10 13:52:24;;;;;;;126.78;23.25;;;;;;;24.80;34.14;97202.03;2056942;28;20229;-61
2022/06/10 13:53:34;;;;;;;131.90;26.30;;;;;;;24.83;34.78;97196.38;2068935;28;20548;-60
2022/06/10 13:54:35;;;;;;;131.80;23.08;;;;;;;25.78;33.57;97200.78;2061798;28;20209;-60
2022/06/10 13:55:40;;;;;;;132.45;23.00;;;;;;;26.15;33.57;97195.31;2062113;28;20206;-61
2022/06/10 13:56:42;;;;;;;123.65;15.18;;;;;;;27.11;34.21;97190.13;2053296;28;20413;-61
2022/06/10 13:57:52;;;;;;;137.88;36.80;;;;;;;27.02;31.79;97199.97;2068737;28;20232;-61
2022/06/10 13:58:56;;;;;;;123.95;16.98;;;;;;;26.99;33.72;97195.78;2066997;28;20209;-61
2022/06/10 14:00:00;;;;;;;141.02;43.70;;;;;;;26.31;32.13;97189.25;2062333;28;20201;-60
2022/06/10 14:01:14;;;;;;;154.75;36.08;;;;;;;25.67;35.70;97181.25;2061743;28;20198;-61
2022/06/10 14:02:18;;;;;;;134.80;35.03;;;;;;;25.52;33.87;97188.09;2057101;28;20286;-61
2022/06/10 14:03:45;;;;;;;138.10;38.58;;;;;;;25.48;34.12;97184.88;2061564;28;20229;-61
2022/06/10 14:04:49;;;;;;;136.60;37.83;;;;;;;25.30;34.50;97184.81;2045461;28;20681;-60
2022/06/10 14:06:01;;;;;;;141.30;41.67;;;;;;;25.20;34.07;97181.34;2062260;28;20209;-60
2022/06/10 14:07:06;;;;;;;125.32;20.45;;;;;;;24.51;37.76;97184.19;2061660;28;20222;-60
2022/06/10 14:08:16;;;;;;;134.70;34.05;;;;;;;24.27;35.48;97182.81;2062308;28;20726;-60
2022/06/10 14:09:22;;;;;;;130.23;25.73;;;;;;;24.36;36.62;97177.63;2062212;28;20199;-60
2022/06/10 14:10:28;;;;;;;126.10;14.93;;;;;;;24.51;37.44;97173.53;2061836;28;20206;-62
2022/06/10 14:11:30;;;;;;;135.65;26.08;;;;;;;23.92;35.52;97180.72;2060382;28;20601;-60
2022/06/10 14:12:32;;;;;;;133.70;23.83;;;;;;;22.85;37.85;97184.69;2059880;28;20361;-60
2022/06/10 14:13:33;;;;;;;131.55;19.67;;;;;;;23.33;37.45;97179.75;2069520;28;20220;-60
2022/06/10 14:14:38;;;;;;;134.65;25.55;;;;;;;22.58;38.00;97177.28;2061677;28;20198;-60
2022/06/10 14:15:49;;;;;;;125.05;14.35;;;;;;;22.45;37.56;97182.81;2062165;28;20554;-61
2022/06/10 14:17:13;;;;;;;125.50;13.55;;;;;;;22.45;38.22;97177.47;2054517;28;20206;-60
2022/06/10 14:18:23;;;;;;;139.80;11.75;;;;;;;22.74;37.97;97182.09;2069322;28;20209;-63
2022/06/10 14:19:25;;;;;;;132.35;14.45;;;;;;;22.17;38.45;97180.59;2062385;28;20213;-63
2022/06/10 14:20:35;;;;;;;130.85;18.27;;;;;;;22.69;38.82;97187.84;2060964;28;20195;-63
2022/06/10 14:21:38;;;;;;;131.35;15.80;;;;;;;23.19;38.15;97188.94;2052311;28;20296;-62
2022/06/10 14:22:39;;;;;;;133.30;18.15;;;;;;;23.45;36.98;97183.97;2069215;28;20247;-62
2022/06/10 14:24:05;;;;;;;128.38;14.07;;;;;;;22.80;36.99;97177.13;2068435;28;20291;-62
2022/06/10 14:25:12;;;;;;;129.20;15.98;;;;;;;23.24;37.03;97184.06;2061807;28;20253;-63
2022/06/10 14:26:24;;;;;;;133.10;14.85;;;;;;;23.26;35.82;97182.09;2062191;28;20686;-60
2022/06/10 14:27:27;;;;;;;131.15;14.38;;;;;;;23.96;35.45;97185.63;2061210;28;20222;-59
2022/06/10 14:28:29;;;;;;;139.63;17.15;;;;;;;24.59;35.35;97176.31;2061982;28;20238;-59
2022/06/10 14:29:44;;;;;;;133.43;18.50;;;;;;;25.59;33.07;97176.66;2062319;28;20198;-59
2022/06/10 14:30:52;;;;;;;133.05;22.92;;;;;;;25.50;32.45;97166.88;2061632;28;20198;-59
2022/06/10 14:32:01;;;;;;;140.68;28.10;;;;;;;25.59;32.88;97171.31;2055316;28;20217;-61
2022/06/10 14:33:20;;;;;;;143.45;32.85;;;;;;;25.86;32.18;97182.94;2069712;28;20209;-60
2022/06/10 14:34:24;;;;;;;150.73;54.08;;;;;;;25.48;31.40;97184.06;2063397;28;20209;-60
2022/06/10 14:35:34;;;;;;;135.30;27.48;;;;;;;25.15;34.07;97179.09;2061454;28;20191;-60
2022/06/10 14:36:59;;;;;;;147.30;45.88;;;;;;;24.86;32.43;97171.22;2043589;28;20192;-60
2022/06/10 14:38:10;;;;;;;134.95;23.60;;;;;;;26.25;33.19;97176.50;2064609;28;20229;-60
2022/06/10 14:39:16;;;;;;;135.68;29.92;;;;;;;26.93;31.67;97179.50;2064499;28;20242;-60
2022/06/10 14:40:21;;;;;;;157.98;49.88;;;;;;;26.60;30.70;97173.91;2061924;28;20195;-59
2022/06/10 14:41:23;;;;;;;152.32;63.63;;;;;;;26.62;30.44;97177.28;2061926;28;20199;-60
2022/06/10 14:42:25;;;;;;;148.95;57.95;;;;;;;26.57;30.76;97161.66;2058680;28;20348;-60
2022/06/10 14:43:33;;;;;;;150.25;54.00;;;;;;;26.53;30.22;97173.69;2061180;28;20202;-60
2022/06/10 14:44:40;;;;;;;142.35;46.38;;;;;;;26.31;30.58;97159.81;2052943;28;20281;-60
2022/06/10 14:45:44;;;;;;;143.40;47.95;;;;;;;26.23;31.03;97168.63;2061128;28;20206;-60
2022/06/10 14:47:07;;;;;;;143.52;52.20;;;;;;;26.29;30.83;97172.50;2061507;28;20210;-60
2022/06/10 14:48:20;;;;;;;142.05;44.38;;;;;;;26.45;30.22;97171.81;2061543;28;20278;-60
2022/06/10 14:49:29;;;;;;;150.30;46.95;;;;;;;26.58;30.50;97167.88;2061100;28;20252;-60
2022/06/10 14:50:33;;;;;;;150.73;50.55;;;;;;;26.40;31.10;97166.09;2057349;28;20537;-60
2022/06/10 14:51:37;;;;;;;149.00;43.85;;;;;;;26.62;30.93;97167.41;2046419;28;20205;-60
2022/06/10 14:52:45;;;;;;;138.45;42.85;;;;;;;26.41;30.74;97170.44;2063971;28;20202;-60
2022/06/10 14:53:54;;;;;;;138.18;34.45;;;;;;;26.75;31.62;97167.00;2062572;28;20206;-60
2022/06/10 14:54:57;;;;;;;139.75;39.40;;;;;;;26.95;30.34;97164.94;2056325;28;20199;-60
2022/06/10 14:55:58;;;;;;;136.23;43.22;;;;;;;26.28;32.03;97161.97;2056535;28;20203;-60
2022/06/10 14:56:59;;;;;;;139.57;41.90;;;;;;;26.39;32.66;97164.38;2050208;28;20230;-60
2022/06/10 14:58:05;;;;;;;135.95;32.28;;;;;;;26.35;33.12;97160.34;2064580;28;20206;-62
2022/06/10 14:59:29;;;;;;;135.25;41.20;;;;;;;26.12;32.81;97170.69;2058788;28;20251;-63
2022/06/10 15:00:33;;;;;;;143.40;39.03;;;;;;;25.82;32.46;97168.19;2056391;28;20199;-63
2022/06/10 15:01:35;;;;;;;136.50;32.13;;;;;;;25.19;32.04;97163.63;2047236;28;20720;-62
2022/06/10 15:02:37;;;;;;;132.40;35.92;;;;;;;25.65;32.08;97164.53;2063894;28;20293;-62
2022/06/10 15:03:38;;;;;;;149.55;50.60;;;;;;;25.92;33.07;97163.63;2063418;28;20772;-62
2022/06/10 15:06:14;;;;;;;133.43;31.55;;;;;;;26.36;30.54;97165.53;2055566;28;20206;-63
2022/06/10 15:06:37;;;;;;;128.07;23.30;;;;;;;26.51;28.56;97157.78;2054666;28;20258;-62
2022/06/10 15:07:39;;;;;;;130.93;29.90;;;;;;;26.29;29.34;97160.97;2055255;28;20227;-62
2022/06/10 15:08:45;;;;;;;125.43;19.33;;;;;;;25.95;28.55;97157.13;2056479;28;20218;-62
2022/06/10 15:09:46;;;;;;;132.63;27.25;;;;;;;25.96;29.33;97156.13;2056083;28;20195;-62
2022/06/10 15:10:48;;;;;;;131.93;29.65;;;;;;;26.35;29.00;97157.69;2056429;28;20203;-63
2022/06/10 15:11:51;;;;;;;134.07;26.33;;;;;;;26.21;28.65;97153.72;2048135;28;20195;-62
2022/06/10 15:12:53;;;;;;;126.47;22.10;;;;;;;25.96;28.82;97150.78;2063811;28;20194;-62
2022/06/10 15:13:54;;;;;;;127.15;23.33;;;;;;;26.47;28.47;97151.06;2061524;28;20229;-62
2022/06/10 15:14:58;;;;;;;129.88;26.77;;;;;;;26.57;28.69;97153.63;2056445;28;20199;-62
2022/06/10 15:15:59;;;;;;;134.75;30.42;;;;;;;26.28;28.34;97149.41;2055869;28;20536;-63
2022/06/10 15:17:01;;;;;;;168.73;46.20;;;;;;;26.17;28.68;97150.50;2049709;28;20248;-62
2022/06/10 15:18:14;;;;;;;128.98;21.90;;;;;;;26.21;28.67;97143.00;2063827;28;20202;-62
2022/06/10 15:19:18;;;;;;;128.13;27.15;;;;;;;26.03;29.22;97146.50;2058576;28;20210;-62
2022/06/10 15:20:20;;;;;;;144.77;41.70;;;;;;;25.73;29.09;97147.72;2056477;28;20206;-62
2022/06/10 15:21:33;;;;;;;131.52;22.77;;;;;;;25.78;29.13;97148.13;2056498;28;20203;-62
2022/06/10 15:22:39;;;;;;;133.98;30.80;;;;;;;26.06;29.19;97145.41;2052863;28;20221;-61
2022/06/10 15:23:46;;;;;;;128.05;25.23;;;;;;;26.18;28.40;97140.63;2055901;28;20210;-60
2022/06/10 15:24:49;;;;;;;132.07;23.23;;;;;;;25.59;29.53;97139.22;2055194;28;20206;-61
2022/06/10 15:25:52;;;;;;;129.13;26.13;;;;;;;25.74;29.27;97138.72;2042107;29;20215;-62
2022/06/10 15:26:55;;;;;;;128.75;26.92;;;;;;;25.73;29.27;97142.38;2041696;28;20584;-61
2022/06/10 15:27:57;;;;;;;132.52;28.15;;;;;;;25.98;28.97;97142.59;2048174;29;20535;-62
2022/06/10 15:28:59;;;;;;;131.60;32.10;;;;;;;26.26;29.08;97145.19;2048315;29;20239;-62
2022/06/10 15:30:01;;;;;;;136.40;31.85;;;;;;;26.18;29.16;97143.31;2046482;29;20864;-62
2022/06/10 15:31:03;;;;;;;132.90;35.08;;;;;;;26.05;29.31;97139.19;2048379;28;20200;-62
2022/06/10 15:32:06;;;;;;;124.88;19.80;;;;;;;25.41;29.00;97144.56;2046633;28;20257;-61
2022/06/10 15:33:08;;;;;;;139.68;27.77;;;;;;;25.52;29.38;97138.16;2063226;28;20348;-61
2022/06/10 15:34:11;;;;;;;126.07;24.30;;;;;;;25.65;29.71;97142.28;2054243;28;20204;-63
2022/06/10 15:40:43;;;;;;;145.52;47.75;;;;;;;24.43;31.04;97136.03;2048048;29;20648;-62
2022/06/10 15:41:44;;;;;;;145.20;49.10;;;;;;;24.40;31.29;97128.31;2041217;28;20211;-61
2022/06/10 15:42:47;;;;;;;145.27;50.95;;;;;;;24.25;31.44;97141.25;2063601;28;20227;-62
2022/06/10 15:43:48;;;;;;;142.20;46.60;;;;;;;24.08;31.15;97135.66;2060171;28;20722;-61
2022/06/10 15:44:50;;;;;;;146.23;53.67;;;;;;;24.71;30.97;97128.97;2048182;28;20227;-62
2022/06/10 15:45:52;;;;;;;151.38;61.80;;;;;;;25.46;30.75;97130.75;2048270;28;20195;-61
2022/06/10 15:46:55;;;;;;;152.02;64.00;;;;;;;26.21;30.36;97135.81;2047697;28;20228;-61
2022/06/10 15:47:57;;;;;;;148.32;56.05;;;;;;;26.49;28.87;97134.84;2047895;29;20676;-61
2022/06/10 15:48:59;;;;;;;141.05;45.00;;;;;;;26.66;28.52;97133.94;2048141;28;20211;-61
2022/06/10 15:50:00;;;;;;;141.30;44.00;;;;;;;26.71;28.74;97133.47;2047864;29;20200;-61
2022/06/10 15:51:03;;;;;;;139.90;31.30;;;;;;;26.31;29.04;97143.75;2048199;28;20208;-61
2022/06/10 15:52:12;;;;;;;132.40;31.23;;;;;;;25.99;28.73;97139.78;2045327;28;20765;-61
2022/06/10 15:53:18;;;;;;;134.95;30.98;;;;;;;25.61;29.17;97143.59;2063430;28;20202;-63
2022/06/10 15:54:28;;;;;;;134.43;32.78;;;;;;;25.21;29.06;97134.94;2050750;28;20829;-64
2022/06/10 15:57:08;;;;;;;130.82;24.40;;;;;;;25.05;29.07;97130.22;2043513;28;20219;-60
2022/06/10 15:58:12;;;;;;;136.35;36.55;;;;;;;24.55;30.55;97134.03;2062853;28;20699;-61
2022/06/10 15:59:17;;;;;;;132.68;26.10;;;;;;;24.17;29.82;97138.47;2052894;28;20203;-60
2022/06/10 16:00:26;;;;;;;137.77;35.60;;;;;;;24.22;29.71;97128.22;2047614;29;20208;-60
2022/06/10 16:01:29;;;;;;;137.55;35.08;;;;;;;24.61;29.68;97136.13;2047920;28;20682;-60
2022/06/10 16:02:31;;;;;;;143.70;51.40;;;;;;;25.18;29.99;97130.72;2052234;28;20253;-60
2022/06/10 16:03:33;;;;;;;146.60;51.72;;;;;;;25.53;30.08;97125.63;2063270;28;20670;-60
2022/06/10 16:04:35;;;;;;;153.55;59.35;;;;;;;25.74;30.32;97136.03;2047577;29;20196;-61
2022/06/10 16:05:36;;;;;;;154.43;50.45;;;;;;;25.70;29.41;97132.84;2047512;29;20200;-60
2022/06/10 16:06:38;;;;;;;139.57;43.85;;;;;;;25.70;29.23;97130.16;2046964;28;20305;-60
2022/06/10 16:07:39;;;;;;;135.40;36.83;;;;;;;25.36;29.00;97122.78;2048167;28;20603;-61
2022/06/10 16:08:41;;;;;;;129.30;25.35;;;;;;;25.32;28.84;97118.69;2047911;28;20203;-60
2022/06/10 16:09:43;;;;;;;129.75;23.60;;;;;;;25.27;28.69;97132.50;2047979;29;20207;-60
2022/06/10 16:10:50;;;;;;;134.70;26.05;;;;;;;25.65;28.03;97128.91;2047938;28;20203;-61
